sensor_id;sensor_type;location;lat;lon;timestamp;P1;durP1;ratioP1;P2;durP2;ratioP2
59504;SDS011;45321;53.200;5.814;2023-12-22T00:00:00;32.38;;;5.57;;
59504;SDS011;45321;53.200;5.814;2023-12-22T00:02:26;31.23;;;4.53;;
59504;SDS011;45321;53.200;5.814;2023-12-22T00:04:53;36.17;;;6.03;;
59504;SDS011;45321;53.200;5.814;2023-12-22T00:07:19;30.60;;;4.68;;
59504;SDS011;45321;53.200;5.814;2023-12-22T00:09:45;24.40;;;4.25;;
59504;SDS011;45321;53.200;5.814;2023-12-22T00:12:11;27.27;;;4.47;;
59504;SDS011;45321;53.200;5.814;2023-12-22T00:14:36;24.92;;;3.80;;
59504;SDS011;45321;53.200;5.814;2023-12-22T00:17:05;26.25;;;4.38;;
59504;SDS011;45321;53.200;5.814;2023-12-22T00:19:31;34.53;;;5.95;;
59504;SDS011;45321;53.200;5.814;2023-12-22T00:21:57;28.65;;;5.05;;
59504;SDS011;45321;53.200;5.814;2023-12-22T00:24:23;33.92;;;6.05;;
59504;SDS011;45321;53.200;5.814;2023-12-22T00:26:49;32.00;;;5.50;;
59504;SDS011;45321;53.200;5.814;2023-12-22T00:29:15;28.80;;;4.05;;
59504;SDS011;45321;53.200;5.814;2023-12-22T00:31:40;27.48;;;5.32;;
59504;SDS011;45321;53.200;5.814;2023-12-22T00:34:06;28.83;;;5.38;;
59504;SDS011;45321;53.200;5.814;2023-12-22T00:36:32;26.35;;;4.35;;
59504;SDS011;45321;53.200;5.814;2023-12-22T00:38:57;25.33;;;4.28;;
59504;SDS011;45321;53.200;5.814;2023-12-22T00:41:23;25.67;;;4.88;;
59504;SDS011;45321;53.200;5.814;2023-12-22T00:43:49;27.80;;;5.45;;
59504;SDS011;45321;53.200;5.814;2023-12-22T00:46:14;27.10;;;5.28;;
59504;SDS011;45321;53.200;5.814;2023-12-22T00:48:40;28.95;;;4.75;;
59504;SDS011;45321;53.200;5.814;2023-12-22T00:51:06;33.88;;;5.13;;
59504;SDS011;45321;53.200;5.814;2023-12-22T00:53:32;24.95;;;3.83;;
59504;SDS011;45321;53.200;5.814;2023-12-22T00:55:59;22.13;;;4.05;;
59504;SDS011;45321;53.200;5.814;2023-12-22T00:58:25;24.90;;;4.57;;
59504;SDS011;45321;53.200;5.814;2023-12-22T01:00:51;20.85;;;3.88;;
59504;SDS011;45321;53.200;5.814;2023-12-22T01:03:17;23.23;;;4.40;;
59504;SDS011;45321;53.200;5.814;2023-12-22T01:05:43;32.78;;;4.30;;
59504;SDS011;45321;53.200;5.814;2023-12-22T01:08:08;24.50;;;4.10;;
59504;SDS011;45321;53.200;5.814;2023-12-22T01:10:34;25.38;;;3.83;;
59504;SDS011;45321;53.200;5.814;2023-12-22T01:13:00;25.17;;;4.05;;
59504;SDS011;45321;53.200;5.814;2023-12-22T01:15:26;25.35;;;4.00;;
59504;SDS011;45321;53.200;5.814;2023-12-22T01:17:52;26.65;;;3.90;;
59504;SDS011;45321;53.200;5.814;2023-12-22T01:20:18;25.67;;;4.45;;
59504;SDS011;45321;53.200;5.814;2023-12-22T01:22:43;27.42;;;4.22;;
59504;SDS011;45321;53.200;5.814;2023-12-22T01:25:09;27.08;;;5.75;;
59504;SDS011;45321;53.200;5.814;2023-12-22T01:27:35;34.92;;;5.15;;
59504;SDS011;45321;53.200;5.814;2023-12-22T01:30:01;35.17;;;6.20;;
59504;SDS011;45321;53.200;5.814;2023-12-22T01:32:26;26.55;;;5.07;;
59504;SDS011;45321;53.200;5.814;2023-12-22T01:34:58;24.77;;;5.13;;
59504;SDS011;45321;53.200;5.814;2023-12-22T01:37:25;31.85;;;5.15;;
59504;SDS011;45321;53.200;5.814;2023-12-22T01:39:50;36.70;;;5.22;;
59504;SDS011;45321;53.200;5.814;2023-12-22T01:42:16;34.95;;;6.00;;
59504;SDS011;45321;53.200;5.814;2023-12-22T01:44:42;34.72;;;5.28;;
59504;SDS011;45321;53.200;5.814;2023-12-22T01:47:08;27.67;;;4.55;;
59504;SDS011;45321;53.200;5.814;2023-12-22T01:49:33;26.00;;;4.43;;
59504;SDS011;45321;53.200;5.814;2023-12-22T01:51:59;31.90;;;4.53;;
59504;SDS011;45321;53.200;5.814;2023-12-22T01:54:25;22.50;;;3.47;;
59504;SDS011;45321;53.200;5.814;2023-12-22T01:56:51;24.98;;;4.65;;
59504;SDS011;45321;53.200;5.814;2023-12-22T01:59:17;10.73;;;2.47;;
59504;SDS011;45321;53.200;5.814;2023-12-22T02:01:42;16.27;;;2.55;;
59504;SDS011;45321;53.200;5.814;2023-12-22T02:04:10;12.50;;;2.83;;
59504;SDS011;45321;53.200;5.814;2023-12-22T02:06:36;14.90;;;2.30;;
59504;SDS011;45321;53.200;5.814;2023-12-22T02:09:02;12.63;;;2.60;;
59504;SDS011;45321;53.200;5.814;2023-12-22T02:11:29;13.85;;;3.15;;
59504;SDS011;45321;53.200;5.814;2023-12-22T02:13:55;17.23;;;3.38;;
59504;SDS011;45321;53.200;5.814;2023-12-22T02:16:26;22.48;;;3.53;;
59504;SDS011;45321;53.200;5.814;2023-12-22T02:22:04;16.85;;;3.30;;
59504;SDS011;45321;53.200;5.814;2023-12-22T02:24:30;19.80;;;3.38;;
59504;SDS011;45321;53.200;5.814;2023-12-22T02:26:59;22.65;;;4.00;;
59504;SDS011;45321;53.200;5.814;2023-12-22T02:30:08;14.80;;;2.25;;
59504;SDS011;45321;53.200;5.814;2023-12-22T02:32:40;14.80;;;3.05;;
59504;SDS011;45321;53.200;5.814;2023-12-22T02:35:14;13.52;;;2.28;;
59504;SDS011;45321;53.200;5.814;2023-12-22T02:37:41;12.40;;;2.08;;
59504;SDS011;45321;53.200;5.814;2023-12-22T02:40:07;12.48;;;2.58;;
59504;SDS011;45321;53.200;5.814;2023-12-22T02:42:35;10.60;;;1.75;;
59504;SDS011;45321;53.200;5.814;2023-12-22T02:45:02;12.38;;;2.13;;
59504;SDS011;45321;53.200;5.814;2023-12-22T02:47:31;20.60;;;3.38;;
59504;SDS011;45321;53.200;5.814;2023-12-22T02:49:58;18.20;;;2.78;;
59504;SDS011;45321;53.200;5.814;2023-12-22T02:52:24;19.05;;;3.42;;
59504;SDS011;45321;53.200;5.814;2023-12-22T02:54:50;20.55;;;3.00;;
59504;SDS011;45321;53.200;5.814;2023-12-22T02:57:16;19.73;;;2.83;;
59504;SDS011;45321;53.200;5.814;2023-12-22T02:59:41;24.90;;;3.58;;
59504;SDS011;45321;53.200;5.814;2023-12-22T03:02:07;24.05;;;4.15;;
59504;SDS011;45321;53.200;5.814;2023-12-22T03:04:32;33.65;;;4.47;;
59504;SDS011;45321;53.200;5.814;2023-12-22T03:06:58;28.77;;;4.43;;
59504;SDS011;45321;53.200;5.814;2023-12-22T03:09:24;32.58;;;5.03;;
59504;SDS011;45321;53.200;5.814;2023-12-22T03:11:50;24.77;;;3.95;;
59504;SDS011;45321;53.200;5.814;2023-12-22T03:14:19;28.55;;;5.10;;
59504;SDS011;45321;53.200;5.814;2023-12-22T03:16:45;26.17;;;4.22;;
59504;SDS011;45321;53.200;5.814;2023-12-22T03:19:11;25.60;;;4.82;;
59504;SDS011;45321;53.200;5.814;2023-12-22T03:21:36;29.27;;;4.85;;
59504;SDS011;45321;53.200;5.814;2023-12-22T03:24:02;21.58;;;3.75;;
59504;SDS011;45321;53.200;5.814;2023-12-22T03:26:28;22.42;;;4.40;;
59504;SDS011;45321;53.200;5.814;2023-12-22T03:28:54;27.40;;;4.10;;
59504;SDS011;45321;53.200;5.814;2023-12-22T03:31:19;28.45;;;4.38;;
59504;SDS011;45321;53.200;5.814;2023-12-22T03:33:45;23.73;;;3.90;;
59504;SDS011;45321;53.200;5.814;2023-12-22T03:36:11;25.48;;;4.65;;
59504;SDS011;45321;53.200;5.814;2023-12-22T03:38:37;23.60;;;4.88;;
59504;SDS011;45321;53.200;5.814;2023-12-22T03:41:02;24.80;;;4.68;;
59504;SDS011;45321;53.200;5.814;2023-12-22T03:43:28;28.17;;;4.43;;
59504;SDS011;45321;53.200;5.814;2023-12-22T03:45:56;24.55;;;3.67;;
59504;SDS011;45321;53.200;5.814;2023-12-22T03:48:22;22.17;;;4.30;;
59504;SDS011;45321;53.200;5.814;2023-12-22T03:50:47;21.60;;;3.63;;
59504;SDS011;45321;53.200;5.814;2023-12-22T03:53:13;23.40;;;3.92;;
59504;SDS011;45321;53.200;5.814;2023-12-22T03:55:39;15.88;;;3.28;;
59504;SDS011;45321;53.200;5.814;2023-12-22T03:58:05;19.73;;;3.22;;
59504;SDS011;45321;53.200;5.814;2023-12-22T04:00:32;31.20;;;5.03;;
59504;SDS011;45321;53.200;5.814;2023-12-22T04:02:58;20.23;;;4.03;;
59504;SDS011;45321;53.200;5.814;2023-12-22T04:05:24;23.70;;;3.72;;
59504;SDS011;45321;53.200;5.814;2023-12-22T04:07:50;27.23;;;3.83;;
59504;SDS011;45321;53.200;5.814;2023-12-22T04:10:16;18.10;;;3.53;;
59504;SDS011;45321;53.200;5.814;2023-12-22T04:12:43;25.50;;;4.72;;
59504;SDS011;45321;53.200;5.814;2023-12-22T04:15:08;27.27;;;4.72;;
59504;SDS011;45321;53.200;5.814;2023-12-22T04:17:34;28.15;;;3.78;;
59504;SDS011;45321;53.200;5.814;2023-12-22T04:20:00;26.50;;;4.88;;
59504;SDS011;45321;53.200;5.814;2023-12-22T04:22:26;25.63;;;5.30;;
59504;SDS011;45321;53.200;5.814;2023-12-22T04:24:52;23.60;;;4.53;;
59504;SDS011;45321;53.200;5.814;2023-12-22T04:27:17;24.90;;;3.63;;
59504;SDS011;45321;53.200;5.814;2023-12-22T04:29:43;30.08;;;4.80;;
59504;SDS011;45321;53.200;5.814;2023-12-22T04:32:09;27.95;;;3.53;;
59504;SDS011;45321;53.200;5.814;2023-12-22T04:34:34;27.83;;;4.80;;
59504;SDS011;45321;53.200;5.814;2023-12-22T04:37:00;23.77;;;4.45;;
59504;SDS011;45321;53.200;5.814;2023-12-22T04:39:26;25.13;;;4.65;;
59504;SDS011;45321;53.200;5.814;2023-12-22T04:41:51;28.50;;;3.78;;
59504;SDS011;45321;53.200;5.814;2023-12-22T04:44:17;27.80;;;4.50;;
59504;SDS011;45321;53.200;5.814;2023-12-22T04:46:43;25.48;;;4.57;;
59504;SDS011;45321;53.200;5.814;2023-12-22T04:49:09;23.27;;;4.75;;
59504;SDS011;45321;53.200;5.814;2023-12-22T04:51:34;30.55;;;5.18;;
59504;SDS011;45321;53.200;5.814;2023-12-22T04:54:00;26.85;;;4.65;;
59504;SDS011;45321;53.200;5.814;2023-12-22T04:56:26;25.05;;;3.90;;
59504;SDS011;45321;53.200;5.814;2023-12-22T04:58:52;28.30;;;3.70;;
59504;SDS011;45321;53.200;5.814;2023-12-22T05:01:17;21.33;;;3.60;;
59504;SDS011;45321;53.200;5.814;2023-12-22T05:03:44;26.08;;;5.13;;
59504;SDS011;45321;53.200;5.814;2023-12-22T05:06:10;30.55;;;4.20;;
59504;SDS011;45321;53.200;5.814;2023-12-22T05:08:35;17.10;;;3.75;;
59504;SDS011;45321;53.200;5.814;2023-12-22T05:11:01;23.90;;;4.30;;
59504;SDS011;45321;53.200;5.814;2023-12-22T05:13:28;29.27;;;4.05;;
59504;SDS011;45321;53.200;5.814;2023-12-22T05:15:53;23.67;;;3.90;;
59504;SDS011;45321;53.200;5.814;2023-12-22T05:18:20;22.63;;;3.78;;
59504;SDS011;45321;53.200;5.814;2023-12-22T05:20:45;20.92;;;3.22;;
59504;SDS011;45321;53.200;5.814;2023-12-22T05:23:11;22.05;;;3.08;;
59504;SDS011;45321;53.200;5.814;2023-12-22T05:25:37;20.08;;;3.85;;
59504;SDS011;45321;53.200;5.814;2023-12-22T05:28:03;25.05;;;3.80;;
59504;SDS011;45321;53.200;5.814;2023-12-22T05:30:28;27.98;;;3.47;;
59504;SDS011;45321;53.200;5.814;2023-12-22T05:32:54;20.73;;;3.33;;
59504;SDS011;45321;53.200;5.814;2023-12-22T05:35:20;25.17;;;3.35;;
59504;SDS011;45321;53.200;5.814;2023-12-22T05:37:48;17.63;;;2.58;;
59504;SDS011;45321;53.200;5.814;2023-12-22T05:40:14;21.38;;;3.58;;
59504;SDS011;45321;53.200;5.814;2023-12-22T05:42:40;22.85;;;4.65;;
59504;SDS011;45321;53.200;5.814;2023-12-22T05:45:07;26.50;;;3.65;;
59504;SDS011;45321;53.200;5.814;2023-12-22T05:47:34;28.50;;;5.03;;
59504;SDS011;45321;53.200;5.814;2023-12-22T05:50:00;23.90;;;4.05;;
59504;SDS011;45321;53.200;5.814;2023-12-22T05:52:26;17.02;;;3.20;;
59504;SDS011;45321;53.200;5.814;2023-12-22T05:54:51;24.30;;;3.45;;
59504;SDS011;45321;53.200;5.814;2023-12-22T05:57:17;23.65;;;3.80;;
59504;SDS011;45321;53.200;5.814;2023-12-22T05:59:43;22.77;;;4.18;;
59504;SDS011;45321;53.200;5.814;2023-12-22T06:02:08;21.48;;;4.13;;
59504;SDS011;45321;53.200;5.814;2023-12-22T06:04:34;19.23;;;3.80;;
59504;SDS011;45321;53.200;5.814;2023-12-22T06:07:00;22.98;;;3.97;;
59504;SDS011;45321;53.200;5.814;2023-12-22T06:09:26;23.20;;;3.65;;
59504;SDS011;45321;53.200;5.814;2023-12-22T06:11:51;20.92;;;3.40;;
59504;SDS011;45321;53.200;5.814;2023-12-22T06:14:17;21.52;;;3.15;;
59504;SDS011;45321;53.200;5.814;2023-12-22T06:16:43;21.85;;;4.75;;
59504;SDS011;45321;53.200;5.814;2023-12-22T06:19:12;25.17;;;3.80;;
59504;SDS011;45321;53.200;5.814;2023-12-22T06:21:38;22.23;;;3.90;;
59504;SDS011;45321;53.200;5.814;2023-12-22T06:24:04;32.83;;;3.90;;
59504;SDS011;45321;53.200;5.814;2023-12-22T06:26:30;22.27;;;3.58;;
59504;SDS011;45321;53.200;5.814;2023-12-22T06:28:56;20.05;;;3.42;;
59504;SDS011;45321;53.200;5.814;2023-12-22T06:31:22;24.27;;;4.75;;
59504;SDS011;45321;53.200;5.814;2023-12-22T06:33:48;22.42;;;3.22;;
59504;SDS011;45321;53.200;5.814;2023-12-22T06:36:22;22.17;;;2.72;;
59504;SDS011;45321;53.200;5.814;2023-12-22T06:38:49;20.13;;;3.30;;
59504;SDS011;45321;53.200;5.814;2023-12-22T06:41:49;21.13;;;2.88;;
59504;SDS011;45321;53.200;5.814;2023-12-22T06:44:07;18.77;;;4.07;;
59504;SDS011;45321;53.200;5.814;2023-12-22T06:46:35;22.83;;;4.65;;
59504;SDS011;45321;53.200;5.814;2023-12-22T06:49:01;17.70;;;3.20;;
59504;SDS011;45321;53.200;5.814;2023-12-22T06:51:27;23.83;;;3.63;;
59504;SDS011;45321;53.200;5.814;2023-12-22T06:54:00;20.58;;;3.53;;
59504;SDS011;45321;53.200;5.814;2023-12-22T06:56:28;18.10;;;4.80;;
59504;SDS011;45321;53.200;5.814;2023-12-22T06:58:58;17.65;;;3.65;;
59504;SDS011;45321;53.200;5.814;2023-12-22T07:01:25;24.98;;;3.80;;
59504;SDS011;45321;53.200;5.814;2023-12-22T07:03:55;22.23;;;3.30;;
59504;SDS011;45321;53.200;5.814;2023-12-22T07:06:21;19.90;;;3.25;;
59504;SDS011;45321;53.200;5.814;2023-12-22T07:11:43;25.92;;;3.97;;
59504;SDS011;45321;53.200;5.814;2023-12-22T07:14:13;18.45;;;3.00;;
59504;SDS011;45321;53.200;5.814;2023-12-22T07:16:40;19.65;;;3.40;;
59504;SDS011;45321;53.200;5.814;2023-12-22T07:19:08;27.42;;;3.22;;
59504;SDS011;45321;53.200;5.814;2023-12-22T07:21:36;24.17;;;3.33;;
59504;SDS011;45321;53.200;5.814;2023-12-22T07:24:01;27.77;;;4.88;;
59504;SDS011;45321;53.200;5.814;2023-12-22T07:26:27;34.25;;;4.85;;
59504;SDS011;45321;53.200;5.814;2023-12-22T07:28:56;26.33;;;4.22;;
59504;SDS011;45321;53.200;5.814;2023-12-22T07:31:22;25.10;;;3.88;;
59504;SDS011;45321;53.200;5.814;2023-12-22T07:33:47;21.00;;;3.63;;
59504;SDS011;45321;53.200;5.814;2023-12-22T07:36:13;29.00;;;5.13;;
59504;SDS011;45321;53.200;5.814;2023-12-22T07:38:39;26.17;;;4.03;;
59504;SDS011;45321;53.200;5.814;2023-12-22T07:41:05;15.60;;;3.22;;
59504;SDS011;45321;53.200;5.814;2023-12-22T07:43:31;16.52;;;2.95;;
59504;SDS011;45321;53.200;5.814;2023-12-22T07:45:57;18.88;;;3.25;;
59504;SDS011;45321;53.200;5.814;2023-12-22T07:48:28;15.38;;;3.78;;
59504;SDS011;45321;53.200;5.814;2023-12-22T07:50:54;11.57;;;2.00;;
59504;SDS011;45321;53.200;5.814;2023-12-22T07:53:22;14.80;;;2.45;;
59504;SDS011;45321;53.200;5.814;2023-12-22T07:55:48;15.98;;;2.60;;
59504;SDS011;45321;53.200;5.814;2023-12-22T07:58:14;15.60;;;2.80;;
59504;SDS011;45321;53.200;5.814;2023-12-22T08:00:40;11.82;;;2.20;;
59504;SDS011;45321;53.200;5.814;2023-12-22T08:03:06;11.80;;;1.95;;
59504;SDS011;45321;53.200;5.814;2023-12-22T08:05:32;9.05;;;1.52;;
59504;SDS011;45321;53.200;5.814;2023-12-22T08:07:58;11.07;;;1.60;;
59504;SDS011;45321;53.200;5.814;2023-12-22T08:10:27;8.95;;;1.30;;
59504;SDS011;45321;53.200;5.814;2023-12-22T08:12:53;10.40;;;2.10;;
59504;SDS011;45321;53.200;5.814;2023-12-22T08:15:18;8.57;;;1.10;;
59504;SDS011;45321;53.200;5.814;2023-12-22T08:17:47;11.70;;;1.67;;
59504;SDS011;45321;53.200;5.814;2023-12-22T08:20:20;8.40;;;1.13;;
59504;SDS011;45321;53.200;5.814;2023-12-22T08:22:47;9.82;;;1.42;;
59504;SDS011;45321;53.200;5.814;2023-12-22T08:25:13;8.43;;;1.00;;
59504;SDS011;45321;53.200;5.814;2023-12-22T08:27:40;7.80;;;1.98;;
59504;SDS011;45321;53.200;5.814;2023-12-22T08:30:07;5.70;;;1.52;;
59504;SDS011;45321;53.200;5.814;2023-12-22T08:32:36;10.02;;;1.67;;
59504;SDS011;45321;53.200;5.814;2023-12-22T08:35:09;13.82;;;1.83;;
59504;SDS011;45321;53.200;5.814;2023-12-22T08:37:34;14.02;;;1.75;;
59504;SDS011;45321;53.200;5.814;2023-12-22T08:40:00;14.05;;;1.80;;
59504;SDS011;45321;53.200;5.814;2023-12-22T08:42:26;15.25;;;2.55;;
59504;SDS011;45321;53.200;5.814;2023-12-22T08:44:54;10.73;;;2.03;;
59504;SDS011;45321;53.200;5.814;2023-12-22T08:47:19;17.05;;;2.58;;
59504;SDS011;45321;53.200;5.814;2023-12-22T08:49:45;18.30;;;3.17;;
59504;SDS011;45321;53.200;5.814;2023-12-22T08:52:11;15.80;;;2.92;;
59504;SDS011;45321;53.200;5.814;2023-12-22T08:54:38;16.30;;;2.72;;
59504;SDS011;45321;53.200;5.814;2023-12-22T08:57:04;20.95;;;3.13;;
59504;SDS011;45321;53.200;5.814;2023-12-22T08:59:30;17.92;;;3.28;;
59504;SDS011;45321;53.200;5.814;2023-12-22T09:01:56;22.33;;;3.90;;
59504;SDS011;45321;53.200;5.814;2023-12-22T09:04:21;18.50;;;3.20;;
59504;SDS011;45321;53.200;5.814;2023-12-22T09:06:48;19.70;;;3.00;;
59504;SDS011;45321;53.200;5.814;2023-12-22T09:09:17;19.83;;;3.47;;
59504;SDS011;45321;53.200;5.814;2023-12-22T09:11:42;16.15;;;2.85;;
59504;SDS011;45321;53.200;5.814;2023-12-22T09:14:09;15.05;;;2.20;;
59504;SDS011;45321;53.200;5.814;2023-12-22T09:16:35;16.70;;;2.88;;
59504;SDS011;45321;53.200;5.814;2023-12-22T09:19:02;14.95;;;3.50;;
59504;SDS011;45321;53.200;5.814;2023-12-22T09:21:28;18.83;;;3.28;;
59504;SDS011;45321;53.200;5.814;2023-12-22T09:23:54;20.00;;;3.38;;
59504;SDS011;45321;53.200;5.814;2023-12-22T09:26:20;15.43;;;2.78;;
59504;SDS011;45321;53.200;5.814;2023-12-22T09:28:46;17.60;;;3.00;;
59504;SDS011;45321;53.200;5.814;2023-12-22T09:31:14;13.98;;;2.95;;
59504;SDS011;45321;53.200;5.814;2023-12-22T09:33:40;16.80;;;3.38;;
59504;SDS011;45321;53.200;5.814;2023-12-22T09:36:07;18.25;;;3.17;;
59504;SDS011;45321;53.200;5.814;2023-12-22T09:38:33;20.25;;;2.80;;
59504;SDS011;45321;53.200;5.814;2023-12-22T09:41:00;26.92;;;3.70;;
59504;SDS011;45321;53.200;5.814;2023-12-22T09:43:26;18.30;;;3.20;;
59504;SDS011;45321;53.200;5.814;2023-12-22T09:45:52;13.27;;;3.25;;
59504;SDS011;45321;53.200;5.814;2023-12-22T09:48:18;18.45;;;3.75;;
59504;SDS011;45321;53.200;5.814;2023-12-22T09:50:52;21.83;;;3.80;;
59504;SDS011;45321;53.200;5.814;2023-12-22T09:53:19;17.42;;;3.70;;
59504;SDS011;45321;53.200;5.814;2023-12-22T09:55:46;18.33;;;3.65;;
59504;SDS011;45321;53.200;5.814;2023-12-22T09:58:14;20.30;;;3.40;;
59504;SDS011;45321;53.200;5.814;2023-12-22T10:00:41;16.35;;;2.55;;
59504;SDS011;45321;53.200;5.814;2023-12-22T10:03:08;15.25;;;2.75;;
59504;SDS011;45321;53.200;5.814;2023-12-22T10:05:36;15.23;;;2.83;;
59504;SDS011;45321;53.200;5.814;2023-12-22T10:08:02;17.55;;;3.80;;
59504;SDS011;45321;53.200;5.814;2023-12-22T10:10:30;19.88;;;3.13;;
59504;SDS011;45321;53.200;5.814;2023-12-22T10:12:58;20.48;;;3.42;;
59504;SDS011;45321;53.200;5.814;2023-12-22T10:15:24;20.15;;;4.20;;
59504;SDS011;45321;53.200;5.814;2023-12-22T10:17:54;19.90;;;4.25;;
59504;SDS011;45321;53.200;5.814;2023-12-22T10:20:21;20.73;;;4.13;;
59504;SDS011;45321;53.200;5.814;2023-12-22T10:22:50;19.00;;;3.90;;
59504;SDS011;45321;53.200;5.814;2023-12-22T10:25:18;22.58;;;4.55;;
59504;SDS011;45321;53.200;5.814;2023-12-22T10:27:45;28.27;;;3.60;;
59504;SDS011;45321;53.200;5.814;2023-12-22T10:30:11;19.55;;;3.78;;
59504;SDS011;45321;53.200;5.814;2023-12-22T10:32:40;19.52;;;3.45;;
59504;SDS011;45321;53.200;5.814;2023-12-22T10:35:08;15.40;;;2.60;;
59504;SDS011;45321;53.200;5.814;2023-12-22T10:37:34;14.90;;;2.78;;
59504;SDS011;45321;53.200;5.814;2023-12-22T10:40:03;23.63;;;3.15;;
59504;SDS011;45321;53.200;5.814;2023-12-22T10:42:30;19.05;;;3.47;;
59504;SDS011;45321;53.200;5.814;2023-12-22T10:44:57;18.98;;;3.25;;
59504;SDS011;45321;53.200;5.814;2023-12-22T10:47:22;19.45;;;2.58;;
59504;SDS011;45321;53.200;5.814;2023-12-22T10:49:48;15.55;;;2.78;;
59504;SDS011;45321;53.200;5.814;2023-12-22T10:52:15;16.38;;;3.22;;
59504;SDS011;45321;53.200;5.814;2023-12-22T10:54:45;21.08;;;3.72;;
59504;SDS011;45321;53.200;5.814;2023-12-22T10:57:14;16.27;;;2.45;;
59504;SDS011;45321;53.200;5.814;2023-12-22T10:59:46;14.52;;;2.40;;
59504;SDS011;45321;53.200;5.814;2023-12-22T11:02:16;16.33;;;2.53;;
59504;SDS011;45321;53.200;5.814;2023-12-22T11:05:02;20.55;;;3.65;;
59504;SDS011;45321;53.200;5.814;2023-12-22T11:07:31;17.27;;;2.97;;
59504;SDS011;45321;53.200;5.814;2023-12-22T11:10:03;19.00;;;2.53;;
59504;SDS011;45321;53.200;5.814;2023-12-22T11:12:40;13.65;;;2.65;;
59504;SDS011;45321;53.200;5.814;2023-12-22T11:15:09;23.05;;;2.78;;
59504;SDS011;45321;53.200;5.814;2023-12-22T11:17:39;18.60;;;2.97;;
59504;SDS011;45321;53.200;5.814;2023-12-22T11:20:08;15.40;;;2.72;;
59504;SDS011;45321;53.200;5.814;2023-12-22T11:22:35;20.50;;;3.35;;
59504;SDS011;45321;53.200;5.814;2023-12-22T11:25:02;21.70;;;3.72;;
59504;SDS011;45321;53.200;5.814;2023-12-22T11:27:29;17.88;;;2.70;;
59504;SDS011;45321;53.200;5.814;2023-12-22T11:29:58;17.27;;;2.75;;
59504;SDS011;45321;53.200;5.814;2023-12-22T11:32:26;19.17;;;3.10;;
59504;SDS011;45321;53.200;5.814;2023-12-22T11:34:53;24.13;;;3.80;;
59504;SDS011;45321;53.200;5.814;2023-12-22T11:37:21;19.48;;;3.33;;
59504;SDS011;45321;53.200;5.814;2023-12-22T11:39:47;20.42;;;2.90;;
59504;SDS011;45321;53.200;5.814;2023-12-22T11:42:20;16.35;;;2.63;;
59504;SDS011;45321;53.200;5.814;2023-12-22T11:44:49;16.92;;;3.08;;
59504;SDS011;45321;53.200;5.814;2023-12-22T11:47:15;20.63;;;3.38;;
59504;SDS011;45321;53.200;5.814;2023-12-22T11:49:41;15.13;;;3.35;;
59504;SDS011;45321;53.200;5.814;2023-12-22T11:52:10;24.08;;;2.67;;
59504;SDS011;45321;53.200;5.814;2023-12-22T11:54:47;10.75;;;2.40;;
59504;SDS011;45321;53.200;5.814;2023-12-22T11:59:55;14.13;;;3.33;;
59504;SDS011;45321;53.200;5.814;2023-12-22T12:02:21;16.60;;;2.53;;
59504;SDS011;45321;53.200;5.814;2023-12-22T12:04:47;16.40;;;2.88;;
59504;SDS011;45321;53.200;5.814;2023-12-22T12:10:08;15.55;;;2.90;;
59504;SDS011;45321;53.200;5.814;2023-12-22T12:12:35;15.23;;;2.67;;
59504;SDS011;45321;53.200;5.814;2023-12-22T12:15:08;16.35;;;2.55;;
59504;SDS011;45321;53.200;5.814;2023-12-22T12:17:42;17.10;;;2.67;;
59504;SDS011;45321;53.200;5.814;2023-12-22T12:20:11;12.32;;;2.92;;
59504;SDS011;45321;53.200;5.814;2023-12-22T12:22:42;16.25;;;2.85;;
59504;SDS011;45321;53.200;5.814;2023-12-22T12:25:09;15.23;;;2.75;;
59504;SDS011;45321;53.200;5.814;2023-12-22T12:27:35;14.40;;;2.70;;
59504;SDS011;45321;53.200;5.814;2023-12-22T12:30:10;14.10;;;2.38;;
59504;SDS011;45321;53.200;5.814;2023-12-22T12:32:39;10.52;;;2.90;;
59504;SDS011;45321;53.200;5.814;2023-12-22T12:35:09;15.85;;;2.47;;
59504;SDS011;45321;53.200;5.814;2023-12-22T12:37:35;13.68;;;2.60;;
59504;SDS011;45321;53.200;5.814;2023-12-22T12:40:02;12.13;;;2.08;;
59504;SDS011;45321;53.200;5.814;2023-12-22T12:42:29;16.40;;;2.75;;
59504;SDS011;45321;53.200;5.814;2023-12-22T12:44:56;13.13;;;3.28;;
59504;SDS011;45321;53.200;5.814;2023-12-22T12:47:22;10.85;;;2.53;;
59504;SDS011;45321;53.200;5.814;2023-12-22T12:49:58;18.30;;;3.00;;
59504;SDS011;45321;53.200;5.814;2023-12-22T12:52:28;19.45;;;3.40;;
59504;SDS011;45321;53.200;5.814;2023-12-22T12:54:54;11.32;;;2.85;;
59504;SDS011;45321;53.200;5.814;2023-12-22T12:57:21;18.38;;;3.05;;
59504;SDS011;45321;53.200;5.814;2023-12-22T12:59:47;24.85;;;3.33;;
59504;SDS011;45321;53.200;5.814;2023-12-22T13:02:14;15.20;;;2.95;;
59504;SDS011;45321;53.200;5.814;2023-12-22T13:04:41;20.45;;;3.78;;
59504;SDS011;45321;53.200;5.814;2023-12-22T13:07:08;21.90;;;3.20;;
59504;SDS011;45321;53.200;5.814;2023-12-22T13:09:40;14.43;;;3.38;;
59504;SDS011;45321;53.200;5.814;2023-12-22T13:12:07;15.02;;;3.08;;
59504;SDS011;45321;53.200;5.814;2023-12-22T13:14:33;12.48;;;3.13;;
59504;SDS011;45321;53.200;5.814;2023-12-22T13:16:59;18.17;;;2.80;;
59504;SDS011;45321;53.200;5.814;2023-12-22T13:19:26;16.33;;;2.35;;
59504;SDS011;45321;53.200;5.814;2023-12-22T13:21:55;14.85;;;2.47;;
59504;SDS011;45321;53.200;5.814;2023-12-22T13:24:21;14.95;;;2.30;;
59504;SDS011;45321;53.200;5.814;2023-12-22T13:26:58;15.30;;;2.17;;
59504;SDS011;45321;53.200;5.814;2023-12-22T13:29:42;17.60;;;2.15;;
59504;SDS011;45321;53.200;5.814;2023-12-22T13:32:14;13.48;;;2.40;;
59504;SDS011;45321;53.200;5.814;2023-12-22T13:37:39;9.05;;;1.60;;
59504;SDS011;45321;53.200;5.814;2023-12-22T13:40:07;8.32;;;1.85;;
59504;SDS011;45321;53.200;5.814;2023-12-22T13:42:34;5.40;;;1.60;;
59504;SDS011;45321;53.200;5.814;2023-12-22T13:45:00;9.32;;;2.05;;
59504;SDS011;45321;53.200;5.814;2023-12-22T13:47:26;7.25;;;1.30;;
59504;SDS011;45321;53.200;5.814;2023-12-22T13:49:52;5.35;;;1.35;;
59504;SDS011;45321;53.200;5.814;2023-12-22T13:52:27;5.57;;;1.38;;
59504;SDS011;45321;53.200;5.814;2023-12-22T13:54:53;8.75;;;1.50;;
59504;SDS011;45321;53.200;5.814;2023-12-22T13:57:22;7.55;;;1.35;;
59504;SDS011;45321;53.200;5.814;2023-12-22T13:59:48;11.13;;;1.70;;
59504;SDS011;45321;53.200;5.814;2023-12-22T14:02:13;11.52;;;2.10;;
59504;SDS011;45321;53.200;5.814;2023-12-22T14:04:39;8.35;;;1.70;;
59504;SDS011;45321;53.200;5.814;2023-12-22T14:07:06;8.38;;;1.73;;
59504;SDS011;45321;53.200;5.814;2023-12-22T14:09:32;5.80;;;1.77;;
59504;SDS011;45321;53.200;5.814;2023-12-22T14:11:59;10.82;;;1.65;;
59504;SDS011;45321;53.200;5.814;2023-12-22T14:14:25;15.18;;;1.50;;
59504;SDS011;45321;53.200;5.814;2023-12-22T14:16:50;10.93;;;1.70;;
59504;SDS011;45321;53.200;5.814;2023-12-22T14:19:16;12.95;;;2.08;;
59504;SDS011;45321;53.200;5.814;2023-12-22T14:21:42;13.52;;;1.95;;
59504;SDS011;45321;53.200;5.814;2023-12-22T14:24:07;10.82;;;1.45;;
59504;SDS011;45321;53.200;5.814;2023-12-22T14:26:33;15.20;;;3.20;;
59504;SDS011;45321;53.200;5.814;2023-12-22T14:29:21;12.55;;;2.00;;
59504;SDS011;45321;53.200;5.814;2023-12-22T14:31:49;10.18;;;2.03;;
59504;SDS011;45321;53.200;5.814;2023-12-22T14:34:16;11.30;;;2.17;;
59504;SDS011;45321;53.200;5.814;2023-12-22T14:36:42;16.75;;;2.15;;
59504;SDS011;45321;53.200;5.814;2023-12-22T14:39:09;11.30;;;1.73;;
59504;SDS011;45321;53.200;5.814;2023-12-22T14:41:38;11.27;;;1.88;;
59504;SDS011;45321;53.200;5.814;2023-12-22T14:44:07;14.10;;;2.25;;
59504;SDS011;45321;53.200;5.814;2023-12-22T14:46:36;11.60;;;2.40;;
59504;SDS011;45321;53.200;5.814;2023-12-22T14:49:05;20.13;;;2.88;;